sensor_id;sensor_type;location;lat;lon;timestamp;P1;durP1;ratioP1;P2;durP2;ratioP2
4575;SDS011;2300;51.874;8.430;2023-06-22T00:00:58;13.00;;;9.68;;
4575;SDS011;2300;51.874;8.430;2023-06-22T00:03:25;11.23;;;10.00;;
4575;SDS011;2300;51.874;8.430;2023-06-22T00:05:53;12.57;;;10.23;;
4575;SDS011;2300;51.874;8.430;2023-06-22T00:08:21;12.45;;;11.15;;
4575;SDS011;2300;51.874;8.430;2023-06-22T00:10:48;10.95;;;9.80;;
4575;SDS011;2300;51.874;8.430;2023-06-22T00:13:14;12.27;;;10.82;;
4575;SDS011;2300;51.874;8.430;2023-06-22T00:15:42;11.48;;;10.27;;
4575;SDS011;2300;51.874;8.430;2023-06-22T00:18:09;12.35;;;10.27;;
4575;SDS011;2300;51.874;8.430;2023-06-22T00:20:38;11.80;;;10.52;;
4575;SDS011;2300;51.874;8.430;2023-06-22T00:23:06;12.13;;;10.27;;
4575;SDS011;2300;51.874;8.430;2023-06-22T00:25:34;12.98;;;10.27;;
4575;SDS011;2300;51.874;8.430;2023-06-22T00:28:01;16.23;;;10.68;;
4575;SDS011;2300;51.874;8.430;2023-06-22T00:30:28;13.20;;;10.77;;
4575;SDS011;2300;51.874;8.430;2023-06-22T00:32:54;12.02;;;10.80;;
4575;SDS011;2300;51.874;8.430;2023-06-22T00:35:21;12.77;;;10.73;;
4575;SDS011;2300;51.874;8.430;2023-06-22T00:37:48;15.15;;;10.52;;
4575;SDS011;2300;51.874;8.430;2023-06-22T00:40:15;15.65;;;11.98;;
4575;SDS011;2300;51.874;8.430;2023-06-22T00:42:46;13.38;;;10.73;;
4575;SDS011;2300;51.874;8.430;2023-06-22T00:45:13;13.75;;;10.98;;
4575;SDS011;2300;51.874;8.430;2023-06-22T00:47:40;15.02;;;11.00;;
4575;SDS011;2300;51.874;8.430;2023-06-22T00:50:08;18.67;;;12.27;;
4575;SDS011;2300;51.874;8.430;2023-06-22T00:52:43;16.20;;;12.27;;
4575;SDS011;2300;51.874;8.430;2023-06-22T00:55:11;17.30;;;12.27;;
4575;SDS011;2300;51.874;8.430;2023-06-22T00:57:39;17.38;;;14.60;;
4575;SDS011;2300;51.874;8.430;2023-06-22T01:00:07;16.98;;;13.88;;
4575;SDS011;2300;51.874;8.430;2023-06-22T01:02:36;16.10;;;14.00;;
4575;SDS011;2300;51.874;8.430;2023-06-22T01:05:04;15.70;;;13.98;;
4575;SDS011;2300;51.874;8.430;2023-06-22T01:07:33;16.05;;;13.98;;
4575;SDS011;2300;51.874;8.430;2023-06-22T01:10:07;17.13;;;13.98;;
4575;SDS011;2300;51.874;8.430;2023-06-22T01:12:42;16.83;;;15.02;;
4575;SDS011;2300;51.874;8.430;2023-06-22T01:15:18;16.77;;;14.93;;
4575;SDS011;2300;51.874;8.430;2023-06-22T01:17:49;17.00;;;15.02;;
4575;SDS011;2300;51.874;8.430;2023-06-22T01:20:19;16.80;;;15.00;;
4575;SDS011;2300;51.874;8.430;2023-06-22T01:22:50;18.80;;;15.50;;
4575;SDS011;2300;51.874;8.430;2023-06-22T01:25:31;20.80;;;15.82;;
4575;SDS011;2300;51.874;8.430;2023-06-22T01:28:10;17.10;;;15.18;;
4575;SDS011;2300;51.874;8.430;2023-06-22T01:30:50;18.92;;;15.48;;
4575;SDS011;2300;51.874;8.430;2023-06-22T01:33:28;16.58;;;14.45;;
4575;SDS011;2300;51.874;8.430;2023-06-22T01:35:55;18.65;;;15.48;;
4575;SDS011;2300;51.874;8.430;2023-06-22T01:38:22;18.00;;;15.77;;
4575;SDS011;2300;51.874;8.430;2023-06-22T01:40:49;19.38;;;15.13;;
4575;SDS011;2300;51.874;8.430;2023-06-22T01:43:16;19.13;;;14.77;;
4575;SDS011;2300;51.874;8.430;2023-06-22T01:45:43;18.33;;;15.25;;
4575;SDS011;2300;51.874;8.430;2023-06-22T01:48:12;17.27;;;14.90;;
4575;SDS011;2300;51.874;8.430;2023-06-22T01:50:38;17.85;;;15.27;;
4575;SDS011;2300;51.874;8.430;2023-06-22T01:53:06;17.08;;;14.98;;
4575;SDS011;2300;51.874;8.430;2023-06-22T01:55:33;16.75;;;14.45;;
4575;SDS011;2300;51.874;8.430;2023-06-22T01:57:59;17.30;;;15.32;;
4575;SDS011;2300;51.874;8.430;2023-06-22T02:00:26;15.80;;;13.60;;
4575;SDS011;2300;51.874;8.430;2023-06-22T02:02:59;16.52;;;14.77;;
4575;SDS011;2300;51.874;8.430;2023-06-22T02:05:31;20.17;;;15.05;;
4575;SDS011;2300;51.874;8.430;2023-06-22T02:08:05;18.20;;;13.30;;
4575;SDS011;2300;51.874;8.430;2023-06-22T02:10:34;18.50;;;13.95;;
4575;SDS011;2300;51.874;8.430;2023-06-22T02:13:05;19.42;;;14.07;;
4575;SDS011;2300;51.874;8.430;2023-06-22T02:15:34;16.67;;;12.77;;
4575;SDS011;2300;51.874;8.430;2023-06-22T02:18:01;15.18;;;13.00;;
4575;SDS011;2300;51.874;8.430;2023-06-22T02:20:28;16.65;;;13.65;;
4575;SDS011;2300;51.874;8.430;2023-06-22T02:22:55;19.23;;;13.88;;
4575;SDS011;2300;51.874;8.430;2023-06-22T02:25:22;15.45;;;12.95;;
4575;SDS011;2300;51.874;8.430;2023-06-22T02:27:49;18.02;;;14.27;;
4575;SDS011;2300;51.874;8.430;2023-06-22T02:30:15;16.63;;;14.45;;
4575;SDS011;2300;51.874;8.430;2023-06-22T02:32:42;17.50;;;14.15;;
4575;SDS011;2300;51.874;8.430;2023-06-22T02:35:08;17.27;;;14.38;;
4575;SDS011;2300;51.874;8.430;2023-06-22T02:37:36;21.23;;;14.70;;
4575;SDS011;2300;51.874;8.430;2023-06-22T02:40:05;17.95;;;14.90;;
4575;SDS011;2300;51.874;8.430;2023-06-22T02:42:34;18.85;;;14.38;;
4575;SDS011;2300;51.874;8.430;2023-06-22T02:45:00;15.98;;;13.25;;
4575;SDS011;2300;51.874;8.430;2023-06-22T02:47:27;15.98;;;13.43;;
4575;SDS011;2300;51.874;8.430;2023-06-22T02:49:53;19.45;;;13.60;;
4575;SDS011;2300;51.874;8.430;2023-06-22T02:52:20;17.95;;;13.20;;
4575;SDS011;2300;51.874;8.430;2023-06-22T02:54:46;18.88;;;12.05;;
4575;SDS011;2300;51.874;8.430;2023-06-22T02:57:14;17.35;;;12.70;;
4575;SDS011;2300;51.874;8.430;2023-06-22T02:59:41;16.00;;;12.48;;
4575;SDS011;2300;51.874;8.430;2023-06-22T03:02:07;17.67;;;13.73;;
4575;SDS011;2300;51.874;8.430;2023-06-22T03:04:34;16.67;;;12.55;;
4575;SDS011;2300;51.874;8.430;2023-06-22T03:07:01;19.65;;;13.48;;
4575;SDS011;2300;51.874;8.430;2023-06-22T03:09:27;22.00;;;13.25;;
4575;SDS011;2300;51.874;8.430;2023-06-22T03:11:54;17.83;;;13.23;;
4575;SDS011;2300;51.874;8.430;2023-06-22T03:14:22;16.60;;;12.95;;
4575;SDS011;2300;51.874;8.430;2023-06-22T03:16:49;19.45;;;13.18;;
4575;SDS011;2300;51.874;8.430;2023-06-22T03:19:15;17.42;;;14.32;;
4575;SDS011;2300;51.874;8.430;2023-06-22T03:21:42;21.27;;;15.18;;
4575;SDS011;2300;51.874;8.430;2023-06-22T03:24:10;19.10;;;14.80;;
4575;SDS011;2300;51.874;8.430;2023-06-22T03:26:36;19.63;;;14.07;;
4575;SDS011;2300;51.874;8.430;2023-06-22T03:29:03;18.63;;;13.88;;
4575;SDS011;2300;51.874;8.430;2023-06-22T03:31:30;20.70;;;13.68;;
4575;SDS011;2300;51.874;8.430;2023-06-22T03:33:57;18.33;;;13.68;;
4575;SDS011;2300;51.874;8.430;2023-06-22T03:36:23;21.80;;;14.60;;
4575;SDS011;2300;51.874;8.430;2023-06-22T03:38:51;19.50;;;15.02;;
4575;SDS011;2300;51.874;8.430;2023-06-22T03:41:18;17.83;;;14.63;;
4575;SDS011;2300;51.874;8.430;2023-06-22T03:43:44;20.65;;;14.93;;
4575;SDS011;2300;51.874;8.430;2023-06-22T03:46:11;20.05;;;15.13;;
4575;SDS011;2300;51.874;8.430;2023-06-22T03:48:39;19.38;;;14.82;;
4575;SDS011;2300;51.874;8.430;2023-06-22T03:51:05;16.67;;;14.20;;
4575;SDS011;2300;51.874;8.430;2023-06-22T03:53:31;20.17;;;14.60;;
4575;SDS011;2300;51.874;8.430;2023-06-22T03:55:58;19.23;;;15.68;;
4575;SDS011;2300;51.874;8.430;2023-06-22T03:58:24;20.08;;;14.63;;
4575;SDS011;2300;51.874;8.430;2023-06-22T04:00:51;20.35;;;15.57;;
4575;SDS011;2300;51.874;8.430;2023-06-22T04:03:19;16.27;;;14.45;;
4575;SDS011;2300;51.874;8.430;2023-06-22T04:05:47;20.23;;;15.13;;
4575;SDS011;2300;51.874;8.430;2023-06-22T04:08:14;19.77;;;15.40;;
4575;SDS011;2300;51.874;8.430;2023-06-22T04:10:40;21.10;;;15.65;;
4575;SDS011;2300;51.874;8.430;2023-06-22T04:13:07;18.27;;;15.27;;
4575;SDS011;2300;51.874;8.430;2023-06-22T04:15:34;18.67;;;16.13;;
4575;SDS011;2300;51.874;8.430;2023-06-22T04:18:00;21.23;;;16.85;;
4575;SDS011;2300;51.874;8.430;2023-06-22T04:20:27;20.85;;;16.55;;
4575;SDS011;2300;51.874;8.430;2023-06-22T04:22:54;18.02;;;16.05;;
4575;SDS011;2300;51.874;8.430;2023-06-22T04:25:21;18.65;;;16.33;;
4575;SDS011;2300;51.874;8.430;2023-06-22T04:27:48;20.63;;;16.23;;
4575;SDS011;2300;51.874;8.430;2023-06-22T04:30:14;25.35;;;16.73;;
4575;SDS011;2300;51.874;8.430;2023-06-22T04:32:42;26.05;;;16.33;;
4575;SDS011;2300;51.874;8.430;2023-06-22T04:35:09;23.88;;;16.90;;
4575;SDS011;2300;51.874;8.430;2023-06-22T04:37:35;23.70;;;16.10;;
4575;SDS011;2300;51.874;8.430;2023-06-22T04:40:04;22.77;;;16.83;;
4575;SDS011;2300;51.874;8.430;2023-06-22T04:42:33;24.73;;;16.23;;
4575;SDS011;2300;51.874;8.430;2023-06-22T04:45:00;20.67;;;16.13;;
4575;SDS011;2300;51.874;8.430;2023-06-22T04:47:26;21.75;;;16.33;;
4575;SDS011;2300;51.874;8.430;2023-06-22T04:49:53;22.50;;;16.25;;
4575;SDS011;2300;51.874;8.430;2023-06-22T04:52:19;20.20;;;15.65;;
4575;SDS011;2300;51.874;8.430;2023-06-22T04:54:46;19.95;;;15.75;;
4575;SDS011;2300;51.874;8.430;2023-06-22T04:57:16;19.27;;;16.25;;
4575;SDS011;2300;51.874;8.430;2023-06-22T04:59:43;20.60;;;15.60;;
4575;SDS011;2300;51.874;8.430;2023-06-22T05:02:09;19.92;;;16.15;;
4575;SDS011;2300;51.874;8.430;2023-06-22T05:04:36;19.08;;;17.08;;
4575;SDS011;2300;51.874;8.430;2023-06-22T05:07:04;19.95;;;15.98;;
4575;SDS011;2300;51.874;8.430;2023-06-22T05:09:31;21.08;;;17.40;;
4575;SDS011;2300;51.874;8.430;2023-06-22T05:11:58;21.13;;;15.90;;
4575;SDS011;2300;51.874;8.430;2023-06-22T05:14:28;20.13;;;17.02;;
4575;SDS011;2300;51.874;8.430;2023-06-22T05:16:55;21.17;;;16.92;;
4575;SDS011;2300;51.874;8.430;2023-06-22T05:19:23;20.50;;;16.67;;
4575;SDS011;2300;51.874;8.430;2023-06-22T05:21:50;18.90;;;16.15;;
4575;SDS011;2300;51.874;8.430;2023-06-22T05:24:16;19.15;;;16.42;;
4575;SDS011;2300;51.874;8.430;2023-06-22T05:26:43;22.95;;;17.30;;
4575;SDS011;2300;51.874;8.430;2023-06-22T05:29:09;19.20;;;16.52;;
4575;SDS011;2300;51.874;8.430;2023-06-22T05:31:37;22.40;;;16.65;;
4575;SDS011;2300;51.874;8.430;2023-06-22T05:34:05;20.75;;;15.43;;
4575;SDS011;2300;51.874;8.430;2023-06-22T05:36:31;24.10;;;15.55;;
4575;SDS011;2300;51.874;8.430;2023-06-22T05:38:58;18.15;;;14.77;;
4575;SDS011;2300;51.874;8.430;2023-06-22T05:41:24;19.05;;;15.30;;
4575;SDS011;2300;51.874;8.430;2023-06-22T05:43:51;23.13;;;15.18;;
4575;SDS011;2300;51.874;8.430;2023-06-22T05:46:18;18.52;;;14.00;;
4575;SDS011;2300;51.874;8.430;2023-06-22T05:48:46;28.02;;;17.25;;
4575;SDS011;2300;51.874;8.430;2023-06-22T05:51:13;18.48;;;15.00;;
4575;SDS011;2300;51.874;8.430;2023-06-22T05:53:39;16.98;;;14.20;;
4575;SDS011;2300;51.874;8.430;2023-06-22T05:56:06;28.95;;;16.45;;
4575;SDS011;2300;51.874;8.430;2023-06-22T05:58:32;16.23;;;14.20;;
4575;SDS011;2300;51.874;8.430;2023-06-22T06:00:59;16.10;;;14.40;;
4575;SDS011;2300;51.874;8.430;2023-06-22T06:03:25;21.95;;;16.05;;
4575;SDS011;2300;51.874;8.430;2023-06-22T06:05:55;18.83;;;13.13;;
4575;SDS011;2300;51.874;8.430;2023-06-22T06:08:21;17.27;;;13.95;;
4575;SDS011;2300;51.874;8.430;2023-06-22T06:10:48;21.08;;;13.77;;
4575;SDS011;2300;51.874;8.430;2023-06-22T06:13:15;18.77;;;13.07;;
4575;SDS011;2300;51.874;8.430;2023-06-22T06:15:41;21.55;;;14.32;;
4575;SDS011;2300;51.874;8.430;2023-06-22T06:18:08;23.15;;;14.57;;
4575;SDS011;2300;51.874;8.430;2023-06-22T06:20:34;20.38;;;14.38;;
4575;SDS011;2300;51.874;8.430;2023-06-22T06:23:02;20.25;;;13.98;;
4575;SDS011;2300;51.874;8.430;2023-06-22T06:25:29;22.85;;;14.48;;
4575;SDS011;2300;51.874;8.430;2023-06-22T06:27:55;21.38;;;14.00;;
4575;SDS011;2300;51.874;8.430;2023-06-22T06:30:22;17.25;;;13.10;;
4575;SDS011;2300;51.874;8.430;2023-06-22T06:32:49;16.10;;;14.48;;
4575;SDS011;2300;51.874;8.430;2023-06-22T06:35:15;16.42;;;13.50;;
4575;SDS011;2300;51.874;8.430;2023-06-22T06:37:43;16.75;;;13.63;;
4575;SDS011;2300;51.874;8.430;2023-06-22T06:40:12;15.80;;;14.10;;
4575;SDS011;2300;51.874;8.430;2023-06-22T06:42:40;15.52;;;13.90;;
4575;SDS011;2300;51.874;8.430;2023-06-22T06:45:09;14.88;;;12.52;;
4575;SDS011;2300;51.874;8.430;2023-06-22T06:47:36;14.50;;;12.95;;
4575;SDS011;2300;51.874;8.430;2023-06-22T06:50:03;14.75;;;12.77;;
4575;SDS011;2300;51.874;8.430;2023-06-22T06:52:31;13.75;;;12.38;;
4575;SDS011;2300;51.874;8.430;2023-06-22T06:54:57;14.57;;;13.10;;
4575;SDS011;2300;51.874;8.430;2023-06-22T06:57:25;14.27;;;12.77;;
4575;SDS011;2300;51.874;8.430;2023-06-22T06:59:53;16.75;;;13.88;;
4575;SDS011;2300;51.874;8.430;2023-06-22T07:02:20;15.98;;;14.38;;
4575;SDS011;2300;51.874;8.430;2023-06-22T07:04:47;16.67;;;14.98;;
4575;SDS011;2300;51.874;8.430;2023-06-22T07:07:13;17.08;;;15.38;;
4575;SDS011;2300;51.874;8.430;2023-06-22T07:09:40;18.02;;;15.95;;
4575;SDS011;2300;51.874;8.430;2023-06-22T07:12:07;18.00;;;15.93;;
4575;SDS011;2300;51.874;8.430;2023-06-22T07:14:35;17.75;;;15.93;;
4575;SDS011;2300;51.874;8.430;2023-06-22T07:17:02;19.17;;;16.20;;
4575;SDS011;2300;51.874;8.430;2023-06-22T07:19:28;17.90;;;16.15;;
4575;SDS011;2300;51.874;8.430;2023-06-22T07:21:56;17.63;;;15.93;;
4575;SDS011;2300;51.874;8.430;2023-06-22T07:24:23;19.45;;;17.30;;
4575;SDS011;2300;51.874;8.430;2023-06-22T07:26:50;19.65;;;17.45;;
4575;SDS011;2300;51.874;8.430;2023-06-22T07:29:17;18.55;;;16.55;;
4575;SDS011;2300;51.874;8.430;2023-06-22T07:31:46;20.08;;;18.02;;
4575;SDS011;2300;51.874;8.430;2023-06-22T07:34:14;20.30;;;18.30;;
4575;SDS011;2300;51.874;8.430;2023-06-22T07:36:41;19.88;;;17.88;;
4575;SDS011;2300;51.874;8.430;2023-06-22T07:39:09;20.48;;;18.38;;
4575;SDS011;2300;51.874;8.430;2023-06-22T07:41:36;21.42;;;17.77;;
4575;SDS011;2300;51.874;8.430;2023-06-22T07:44:03;20.00;;;17.92;;
4575;SDS011;2300;51.874;8.430;2023-06-22T07:46:31;20.30;;;17.92;;
4575;SDS011;2300;51.874;8.430;2023-06-22T07:48:59;19.85;;;17.85;;
4575;SDS011;2300;51.874;8.430;2023-06-22T07:51:26;21.25;;;18.92;;
4575;SDS011;2300;51.874;8.430;2023-06-22T07:53:52;22.52;;;20.30;;
4575;SDS011;2300;51.874;8.430;2023-06-22T07:56:19;21.60;;;19.40;;
4575;SDS011;2300;51.874;8.430;2023-06-22T07:58:46;22.52;;;20.10;;
4575;SDS011;2300;51.874;8.430;2023-06-22T08:01:13;22.25;;;19.95;;
4575;SDS011;2300;51.874;8.430;2023-06-22T08:03:40;23.50;;;21.05;;
4575;SDS011;2300;51.874;8.430;2023-06-22T08:06:08;21.95;;;19.85;;
4575;SDS011;2300;51.874;8.430;2023-06-22T08:08:35;22.63;;;20.42;;
4575;SDS011;2300;51.874;8.430;2023-06-22T08:11:02;22.50;;;19.25;;
4575;SDS011;2300;51.874;8.430;2023-06-22T08:13:28;22.02;;;19.25;;
4575;SDS011;2300;51.874;8.430;2023-06-22T08:15:55;20.50;;;18.50;;
4575;SDS011;2300;51.874;8.430;2023-06-22T08:18:21;18.73;;;16.83;;
4575;SDS011;2300;51.874;8.430;2023-06-22T08:20:48;21.02;;;18.95;;
4575;SDS011;2300;51.874;8.430;2023-06-22T08:23:15;20.63;;;18.42;;
4575;SDS011;2300;51.874;8.430;2023-06-22T08:25:42;17.60;;;15.73;;
4575;SDS011;2300;51.874;8.430;2023-06-22T08:28:08;18.00;;;16.20;;
4575;SDS011;2300;51.874;8.430;2023-06-22T08:30:35;18.13;;;16.33;;
4575;SDS011;2300;51.874;8.430;2023-06-22T08:33:01;17.98;;;15.68;;
4575;SDS011;2300;51.874;8.430;2023-06-22T08:35:28;16.00;;;14.30;;
4575;SDS011;2300;51.874;8.430;2023-06-22T08:37:55;14.05;;;10.80;;
4575;SDS011;2300;51.874;8.430;2023-06-22T08:40:23;11.45;;;9.90;;
4575;SDS011;2300;51.874;8.430;2023-06-22T08:42:49;9.10;;;8.20;;
4575;SDS011;2300;51.874;8.430;2023-06-22T08:45:16;11.68;;;9.70;;
4575;SDS011;2300;51.874;8.430;2023-06-22T08:47:43;12.18;;;9.48;;
4575;SDS011;2300;51.874;8.430;2023-06-22T08:50:10;12.35;;;9.15;;
4575;SDS011;2300;51.874;8.430;2023-06-22T08:52:37;12.82;;;10.27;;
4575;SDS011;2300;51.874;8.430;2023-06-22T08:55:06;11.40;;;10.20;;
4575;SDS011;2300;51.874;8.430;2023-06-22T08:57:35;11.48;;;9.82;;
4575;SDS011;2300;51.874;8.430;2023-06-22T09:00:04;12.02;;;9.90;;
4575;SDS011;2300;51.874;8.430;2023-06-22T09:02:40;17.75;;;10.40;;
4575;SDS011;2300;51.874;8.430;2023-06-22T09:05:07;11.55;;;10.32;;
4575;SDS011;2300;51.874;8.430;2023-06-22T09:07:33;12.07;;;10.25;;
4575;SDS011;2300;51.874;8.430;2023-06-22T09:10:00;17.15;;;11.00;;
4575;SDS011;2300;51.874;8.430;2023-06-22T09:12:27;12.73;;;10.77;;
4575;SDS011;2300;51.874;8.430;2023-06-22T09:14:57;12.73;;;11.48;;
4575;SDS011;2300;51.874;8.430;2023-06-22T09:17:24;12.50;;;11.27;;
4575;SDS011;2300;51.874;8.430;2023-06-22T09:19:51;11.70;;;10.38;;
4575;SDS011;2300;51.874;8.430;2023-06-22T09:22:17;14.48;;;9.52;;
4575;SDS011;2300;51.874;8.430;2023-06-22T09:24:44;12.20;;;8.98;;
4575;SDS011;2300;51.874;8.430;2023-06-22T09:27:10;11.38;;;9.25;;
4575;SDS011;2300;51.874;8.430;2023-06-22T09:29:37;10.65;;;9.57;;
4575;SDS011;2300;51.874;8.430;2023-06-22T09:32:05;11.00;;;9.88;;
4575;SDS011;2300;51.874;8.430;2023-06-22T09:34:32;9.40;;;8.40;;
4575;SDS011;2300;51.874;8.430;2023-06-22T09:36:59;8.80;;;7.75;;
4575;SDS011;2300;51.874;8.430;2023-06-22T09:39:25;8.20;;;7.40;;
4575;SDS011;2300;51.874;8.430;2023-06-22T09:41:52;8.43;;;7.53;;
4575;SDS011;2300;51.874;8.430;2023-06-22T09:44:18;7.72;;;6.90;;
4575;SDS011;2300;51.874;8.430;2023-06-22T09:46:45;8.25;;;7.35;;
4575;SDS011;2300;51.874;8.430;2023-06-22T09:49:13;10.70;;;8.30;;
4575;SDS011;2300;51.874;8.430;2023-06-22T09:51:39;9.48;;;8.13;;
4575;SDS011;2300;51.874;8.430;2023-06-22T09:54:06;8.35;;;7.55;;
4575;SDS011;2300;51.874;8.430;2023-06-22T09:56:32;12.43;;;8.13;;
4575;SDS011;2300;51.874;8.430;2023-06-22T09:58:59;9.02;;;7.88;;
4575;SDS011;2300;51.874;8.430;2023-06-22T10:01:25;8.75;;;7.88;;
4575;SDS011;2300;51.874;8.430;2023-06-22T10:03:52;10.80;;;8.38;;
4575;SDS011;2300;51.874;8.430;2023-06-22T10:06:22;9.57;;;8.57;;
4575;SDS011;2300;51.874;8.430;2023-06-22T10:08:50;9.43;;;8.07;;
4575;SDS011;2300;51.874;8.430;2023-06-22T10:11:16;8.68;;;7.85;;
4575;SDS011;2300;51.874;8.430;2023-06-22T10:13:43;12.68;;;9.30;;
4575;SDS011;2300;51.874;8.430;2023-06-22T10:16:10;9.13;;;7.95;;
4575;SDS011;2300;51.874;8.430;2023-06-22T10:18:36;13.68;;;9.55;;
4575;SDS011;2300;51.874;8.430;2023-06-22T10:21:03;11.43;;;9.35;;
4575;SDS011;2300;51.874;8.430;2023-06-22T10:23:31;10.27;;;9.15;;
4575;SDS011;2300;51.874;8.430;2023-06-22T10:25:57;10.02;;;9.02;;
4575;SDS011;2300;51.874;8.430;2023-06-22T10:28:24;11.75;;;10.55;;
4575;SDS011;2300;51.874;8.430;2023-06-22T10:30:50;11.95;;;10.35;;
4575;SDS011;2300;51.874;8.430;2023-06-22T10:33:17;11.27;;;9.10;;
4575;SDS011;2300;51.874;8.430;2023-06-22T10:35:44;11.57;;;9.88;;
4575;SDS011;2300;51.874;8.430;2023-06-22T10:38:10;9.93;;;8.93;;
4575;SDS011;2300;51.874;8.430;2023-06-22T10:40:38;10.10;;;8.95;;
4575;SDS011;2300;51.874;8.430;2023-06-22T10:43:05;10.93;;;9.35;;
4575;SDS011;2300;51.874;8.430;2023-06-22T10:45:32;11.88;;;9.90;;
4575;SDS011;2300;51.874;8.430;2023-06-22T10:47:58;13.77;;;10.52;;
4575;SDS011;2300;51.874;8.430;2023-06-22T10:50:25;12.77;;;10.60;;
4575;SDS011;2300;51.874;8.430;2023-06-22T10:52:52;11.82;;;10.05;;
4575;SDS011;2300;51.874;8.430;2023-06-22T10:55:18;10.48;;;9.48;;
4575;SDS011;2300;51.874;8.430;2023-06-22T10:57:46;10.32;;;9.23;;
4575;SDS011;2300;51.874;8.430;2023-06-22T11:00:13;9.73;;;8.73;;
4575;SDS011;2300;51.874;8.430;2023-06-22T11:02:40;10.48;;;8.95;;
4575;SDS011;2300;51.874;8.430;2023-06-22T11:05:07;11.85;;;9.85;;
4575;SDS011;2300;51.874;8.430;2023-06-22T11:07:34;10.32;;;8.82;;
4575;SDS011;2300;51.874;8.430;2023-06-22T11:10:00;10.23;;;9.20;;
4575;SDS011;2300;51.874;8.430;2023-06-22T11:12:27;9.52;;;8.63;;
4575;SDS011;2300;51.874;8.430;2023-06-22T11:14:54;10.38;;;9.25;;
4575;SDS011;2300;51.874;8.430;2023-06-22T11:17:22;9.98;;;9.00;;
4575;SDS011;2300;51.874;8.430;2023-06-22T11:19:48;10.70;;;9.38;;
4575;SDS011;2300;51.874;8.430;2023-06-22T11:22:15;10.13;;;8.70;;
4575;SDS011;2300;51.874;8.430;2023-06-22T11:24:42;9.38;;;8.45;;
4575;SDS011;2300;51.874;8.430;2023-06-22T11:27:08;11.82;;;9.00;;
4575;SDS011;2300;51.874;8.430;2023-06-22T11:29:34;10.98;;;8.60;;
4575;SDS011;2300;51.874;8.430;2023-06-22T11:32:04;10.13;;;9.02;;
4575;SDS011;2300;51.874;8.430;2023-06-22T11:34:31;10.07;;;8.77;;
4575;SDS011;2300;51.874;8.430;2023-06-22T11:36:58;10.45;;;8.70;;
4575;SDS011;2300;51.874;8.430;2023-06-22T11:39:24;10.57;;;9.40;;
4575;SDS011;2300;51.874;8.430;2023-06-22T11:41:50;10.55;;;9.15;;
4575;SDS011;2300;51.874;8.430;2023-06-22T11:44:17;11.73;;;8.90;;
4575;SDS011;2300;51.874;8.430;2023-06-22T11:46:44;11.13;;;9.60;;
4575;SDS011;2300;51.874;8.430;2023-06-22T11:49:12;10.55;;;9.43;;
4575;SDS011;2300;51.874;8.430;2023-06-22T11:51:38;11.38;;;10.23;;
4575;SDS011;2300;51.874;8.430;2023-06-22T11:54:05;12.20;;;10.40;;
4575;SDS011;2300;51.874;8.430;2023-06-22T11:56:32;10.90;;;9.75;;
4575;SDS011;2300;51.874;8.430;2023-06-22T11:58:59;11.75;;;10.30;;
4575;SDS011;2300;51.874;8.430;2023-06-22T12:01:25;12.75;;;9.95;;
4575;SDS011;2300;51.874;8.430;2023-06-22T12:03:52;11.68;;;10.52;;
4575;SDS011;2300;51.874;8.430;2023-06-22T12:06:20;11.77;;;10.43;;
4575;SDS011;2300;51.874;8.430;2023-06-22T12:08:46;11.98;;;10.82;;
4575;SDS011;2300;51.874;8.430;2023-06-22T12:11:13;12.38;;;10.77;;
4575;SDS011;2300;51.874;8.430;2023-06-22T12:13:39;12.10;;;10.85;;
4575;SDS011;2300;51.874;8.430;2023-06-22T12:16:06;11.70;;;10.52;;
4575;SDS011;2300;51.874;8.430;2023-06-22T12:18:32;11.50;;;10.38;;
4575;SDS011;2300;51.874;8.430;2023-06-22T12:20:59;12.25;;;10.85;;
4575;SDS011;2300;51.874;8.430;2023-06-22T12:23:27;11.52;;;10.23;;
4575;SDS011;2300;51.874;8.430;2023-06-22T12:25:53;12.32;;;11.13;;
4575;SDS011;2300;51.874;8.430;2023-06-22T12:28:20;11.88;;;10.65;;
4575;SDS011;2300;51.874;8.430;2023-06-22T12:30:48;12.05;;;10.85;;
4575;SDS011;2300;51.874;8.430;2023-06-22T12:33:15;12.13;;;10.82;;
4575;SDS011;2300;51.874;8.430;2023-06-22T12:35:41;12.35;;;11.05;;
4575;SDS011;2300;51.874;8.430;2023-06-22T12:38:10;12.40;;;11.10;;
4575;SDS011;2300;51.874;8.430;2023-06-22T12:40:38;12.38;;;10.82;;
4575;SDS011;2300;51.874;8.430;2023-06-22T12:43:04;13.00;;;11.32;;
4575;SDS011;2300;51.874;8.430;2023-06-22T12:45:31;12.25;;;11.05;;
4575;SDS011;2300;51.874;8.430;2023-06-22T12:47:58;13.90;;;11.38;;
4575;SDS011;2300;51.874;8.430;2023-06-22T12:50:25;14.57;;;12.35;;
4575;SDS011;2300;51.874;8.430;2023-06-22T12:52:52;14.52;;;12.50;;
4575;SDS011;2300;51.874;8.430;2023-06-22T12:55:18;13.20;;;11.60;;
4575;SDS011;2300;51.874;8.430;2023-06-22T12:57:46;13.50;;;12.10;;
4575;SDS011;2300;51.874;8.430;2023-06-22T13:00:13;14.80;;;12.82;;
4575;SDS011;2300;51.874;8.430;2023-06-22T13:02:40;14.93;;;13.32;;
4575;SDS011;2300;51.874;8.430;2023-06-22T13:05:07;15.35;;;13.63;;
4575;SDS011;2300;51.874;8.430;2023-06-22T13:07:34;17.60;;;14.73;;
4575;SDS011;2300;51.874;8.430;2023-06-22T13:10:01;16.88;;;15.07;;
4575;SDS011;2300;51.874;8.430;2023-06-22T13:12:28;16.23;;;14.52;;
4575;SDS011;2300;51.874;8.430;2023-06-22T13:14:55;18.27;;;15.38;;
4575;SDS011;2300;51.874;8.430;2023-06-22T13:17:22;17.75;;;15.95;;
4575;SDS011;2300;51.874;8.430;2023-06-22T13:19:48;18.75;;;16.83;;
4575;SDS011;2300;51.874;8.430;2023-06-22T13:22:25;19.42;;;16.75;;
4575;SDS011;2300;51.874;8.430;2023-06-22T13:24:54;17.98;;;16.20;;
4575;SDS011;2300;51.874;8.430;2023-06-22T13:27:20;19.58;;;17.45;;
4575;SDS011;2300;51.874;8.430;2023-06-22T13:29:47;22.92;;;19.40;;
4575;SDS011;2300;51.874;8.430;2023-06-22T13:32:14;22.95;;;20.33;;
4575;SDS011;2300;51.874;8.430;2023-06-22T13:34:41;28.13;;;22.50;;
4575;SDS011;2300;51.874;8.430;2023-06-22T13:37:08;25.80;;;23.02;;
4575;SDS011;2300;51.874;8.430;2023-06-22T13:39:35;26.25;;;23.50;;
4575;SDS011;2300;51.874;8.430;2023-06-22T13:42:01;27.65;;;24.65;;
4575;SDS011;2300;51.874;8.430;2023-06-22T13:44:28;30.10;;;25.02;;
4575;SDS011;2300;51.874;8.430;2023-06-22T13:46:54;30.58;;;27.35;;
4575;SDS011;2300;51.874;8.430;2023-06-22T13:49:22;34.97;;;28.30;;
4575;SDS011;2300;51.874;8.430;2023-06-22T13:51:49;37.40;;;29.67;;
4575;SDS011;2300;51.874;8.430;2023-06-22T13:54:16;35.25;;;29.33;;
4575;SDS011;2300;51.874;8.430;2023-06-22T13:56:43;33.95;;;29.48;;
4575;SDS011;2300;51.874;8.430;2023-06-22T13:59:09;34.67;;;30.00;;
4575;SDS011;2300;51.874;8.430;2023-06-22T14:01:35;34.65;;;30.95;;
4575;SDS011;2300;51.874;8.430;2023-06-22T14:04:03;33.65;;;30.13;;
4575;SDS011;2300;51.874;8.430;2023-06-22T14:06:31;34.80;;;30.80;;
4575;SDS011;2300;51.874;8.430;2023-06-22T14:08:58;33.55;;;29.70;;
4575;SDS011;2300;51.874;8.430;2023-06-22T14:11:25;33.35;;;29.50;;
4575;SDS011;2300;51.874;8.430;2023-06-22T14:13:51;29.58;;;26.48;;
4575;SDS011;2300;51.874;8.430;2023-06-22T14:16:18;29.45;;;26.45;;
4575;SDS011;2300;51.874;8.430;2023-06-22T14:18:44;27.80;;;24.80;;
4575;SDS011;2300;51.874;8.430;2023-06-22T14:21:11;29.52;;;23.25;;
4575;SDS011;2300;51.874;8.430;2023-06-22T14:23:39;27.17;;;20.60;;
4575;SDS011;2300;51.874;8.430;2023-06-22T14:26:05;24.77;;;19.98;;
4575;SDS011;2300;51.874;8.430;2023-06-22T14:28:32;23.00;;;20.45;;
4575;SDS011;2300;51.874;8.430;2023-06-22T14:30:58;24.52;;;20.73;;
4575;SDS011;2300;51.874;8.430;2023-06-22T14:33:25;27.27;;;23.80;;
4575;SDS011;2300;51.874;8.430;2023-06-22T14:35:52;28.58;;;24.80;;
4575;SDS011;2300;51.874;8.430;2023-06-22T14:38:19;31.00;;;27.00;;
4575;SDS011;2300;51.874;8.430;2023-06-22T14:40:47;32.80;;;28.70;;
4575;SDS011;2300;51.874;8.430;2023-06-22T14:43:14;33.45;;;29.38;;
4575;SDS011;2300;51.874;8.430;2023-06-22T14:45:40;33.08;;;29.50;;
4575;SDS011;2300;51.874;8.430;2023-06-22T14:48:07;32.88;;;26.58;;
4575;SDS011;2300;51.874;8.430;2023-06-22T14:50:33;30.73;;;27.55;;